sensor_id;sensor_type;location;lat;lon;timestamp;pressure;altitude;pressure_sealevel;temperature;humidity
11114;BME280;5610;52.154;9.198;2023-03-14T00:01:57;98174.06;;;13.60;100.00
11114;BME280;5610;52.154;9.198;2023-03-14T00:04:43;98175.50;;;13.79;100.00
11114;BME280;5610;52.154;9.198;2023-03-14T00:07:30;98171.97;;;13.78;100.00
11114;BME280;5610;52.154;9.198;2023-03-14T00:10:17;98156.56;;;13.80;100.00
11114;BME280;5610;52.154;9.198;2023-03-14T00:13:03;98182.00;;;13.84;100.00
11114;BME280;5610;52.154;9.198;2023-03-14T00:15:48;98178.47;;;13.84;100.00
11114;BME280;5610;52.154;9.198;2023-03-14T00:18:34;98167.78;;;13.84;100.00
11114;BME280;5610;52.154;9.198;2023-03-14T00:21:19;98182.69;;;13.78;100.00
11114;BME280;5610;52.154;9.198;2023-03-14T00:24:07;98202.44;;;13.77;100.00
11114;BME280;5610;52.154;9.198;2023-03-14T00:26:52;98199.25;;;13.73;100.00
11114;BME280;5610;52.154;9.198;2023-03-14T00:29:37;98209.63;;;13.77;100.00
11114;BME280;5610;52.154;9.198;2023-03-14T00:32:23;98195.09;;;13.71;100.00
11114;BME280;5610;52.154;9.198;2023-03-14T00:35:08;98192.47;;;13.63;100.00
11114;BME280;5610;52.154;9.198;2023-03-14T00:37:54;98205.84;;;13.63;100.00
11114;BME280;5610;52.154;9.198;2023-03-14T00:40:41;98187.31;;;13.45;100.00
11114;BME280;5610;52.154;9.198;2023-03-14T00:43:28;98192.69;;;13.53;100.00
11114;BME280;5610;52.154;9.198;2023-03-14T00:46:13;98198.72;;;13.47;100.00
11114;BME280;5610;52.154;9.198;2023-03-14T00:48:58;98198.72;;;13.47;100.00
11114;BME280;5610;52.154;9.198;2023-03-14T00:51:44;98198.03;;;13.45;100.00
11114;BME280;5610;52.154;9.198;2023-03-14T00:54:29;98175.47;;;13.48;100.00
11114;BME280;5610;52.154;9.198;2023-03-14T00:57:16;98165.28;;;13.43;100.00
11114;BME280;5610;52.154;9.198;2023-03-14T01:00:01;98160.25;;;13.48;100.00
11114;BME280;5610;52.154;9.198;2023-03-14T01:02:49;98138.88;;;13.40;100.00
11114;BME280;5610;52.154;9.198;2023-03-14T01:05:35;98127.66;;;13.44;100.00
11114;BME280;5610;52.154;9.198;2023-03-14T01:08:21;98126.84;;;13.36;100.00
11114;BME280;5610;52.154;9.198;2023-03-14T01:11:07;98129.34;;;13.37;100.00
11114;BME280;5610;52.154;9.198;2023-03-14T01:13:54;98126.34;;;13.40;100.00
11114;BME280;5610;52.154;9.198;2023-03-14T01:16:40;98144.75;;;13.35;100.00
11114;BME280;5610;52.154;9.198;2023-03-14T01:19:26;98146.63;;;13.27;100.00
11114;BME280;5610;52.154;9.198;2023-03-14T01:22:11;98150.75;;;13.37;100.00
11114;BME280;5610;52.154;9.198;2023-03-14T01:24:57;98167.13;;;13.42;100.00
11114;BME280;5610;52.154;9.198;2023-03-14T01:27:42;98161.63;;;13.36;100.00
11114;BME280;5610;52.154;9.198;2023-03-14T01:30:29;98160.28;;;13.32;100.00
11114;BME280;5610;52.154;9.198;2023-03-14T01:33:15;98150.09;;;13.35;100.00
11114;BME280;5610;52.154;9.198;2023-03-14T01:36:02;98153.63;;;13.19;100.00
11114;BME280;5610;52.154;9.198;2023-03-14T01:38:48;98142.28;;;13.26;100.00
11114;BME280;5610;52.154;9.198;2023-03-14T01:41:35;98127.41;;;13.23;100.00
11114;BME280;5610;52.154;9.198;2023-03-14T01:44:20;98097.34;;;13.13;100.00
11114;BME280;5610;52.154;9.198;2023-03-14T01:47:07;98079.63;;;13.12;100.00
11114;BME280;5610;52.154;9.198;2023-03-14T01:49:56;98107.84;;;13.14;100.00
11114;BME280;5610;52.154;9.198;2023-03-14T01:52:46;98101.84;;;13.12;100.00
11114;BME280;5610;52.154;9.198;2023-03-14T01:55:33;98111.06;;;13.02;100.00
11114;BME280;5610;52.154;9.198;2023-03-14T01:58:19;98104.91;;;12.93;100.00
11114;BME280;5610;52.154;9.198;2023-03-14T02:01:06;98103.88;;;13.02;100.00
11114;BME280;5610;52.154;9.198;2023-03-14T02:03:56;98137.25;;;13.14;100.00
11114;BME280;5610;52.154;9.198;2023-03-14T02:06:48;98117.91;;;13.12;100.00
11114;BME280;5610;52.154;9.198;2023-03-14T02:09:36;98120.88;;;13.17;100.00
11114;BME280;5610;52.154;9.198;2023-03-14T02:12:25;98108.91;;;13.05;100.00
11114;BME280;5610;52.154;9.198;2023-03-14T02:15:31;98121.22;;;13.23;100.00
11114;BME280;5610;52.154;9.198;2023-03-14T02:18:20;98124.56;;;13.16;100.00
11114;BME280;5610;52.154;9.198;2023-03-14T02:21:49;98103.34;;;13.23;100.00
11114;BME280;5610;52.154;9.198;2023-03-14T02:24:46;98104.50;;;13.29;100.00
11114;BME280;5610;52.154;9.198;2023-03-14T02:27:36;98088.97;;;13.16;100.00
11114;BME280;5610;52.154;9.198;2023-03-14T02:30:23;98087.13;;;13.16;100.00
11114;BME280;5610;52.154;9.198;2023-03-14T02:33:10;98082.47;;;13.10;100.00
11114;BME280;5610;52.154;9.198;2023-03-14T02:36:02;98086.66;;;13.13;100.00
11114;BME280;5610;52.154;9.198;2023-03-14T02:38:54;98069.97;;;13.11;100.00
11114;BME280;5610;52.154;9.198;2023-03-14T02:41:43;98076.78;;;13.13;100.00
11114;BME280;5610;52.154;9.198;2023-03-14T02:44:31;98095.81;;;13.18;100.00
11114;BME280;5610;52.154;9.198;2023-03-14T02:47:19;98071.63;;;13.12;100.00
11114;BME280;5610;52.154;9.198;2023-03-14T02:50:09;98089.50;;;13.11;100.00
11114;BME280;5610;52.154;9.198;2023-03-14T02:52:55;98063.28;;;13.07;100.00
11114;BME280;5610;52.154;9.198;2023-03-14T02:55:44;98076.97;;;13.12;100.00
11114;BME280;5610;52.154;9.198;2023-03-14T02:58:30;98068.75;;;13.13;100.00
11114;BME280;5610;52.154;9.198;2023-03-14T03:01:25;98062.22;;;13.16;100.00
11114;BME280;5610;52.154;9.198;2023-03-14T03:04:10;98077.63;;;13.14;100.00
11114;BME280;5610;52.154;9.198;2023-03-14T03:06:56;98094.13;;;13.17;100.00
11114;BME280;5610;52.154;9.198;2023-03-14T03:09:41;98092.38;;;12.93;100.00
11114;BME280;5610;52.154;9.198;2023-03-14T03:12:26;98123.00;;;12.09;100.00
11114;BME280;5610;52.154;9.198;2023-03-14T03:15:11;98160.09;;;11.28;100.00
11114;BME280;5610;52.154;9.198;2023-03-14T03:17:59;98190.81;;;10.62;100.00
11114;BME280;5610;52.154;9.198;2023-03-14T03:20:44;98179.94;;;10.02;100.00
11114;BME280;5610;52.154;9.198;2023-03-14T03:23:30;98172.47;;;9.88;100.00
11114;BME280;5610;52.154;9.198;2023-03-14T03:26:15;98178.44;;;9.72;100.00
11114;BME280;5610;52.154;9.198;2023-03-14T03:29:00;98155.47;;;9.53;100.00
11114;BME280;5610;52.154;9.198;2023-03-14T03:31:46;98173.28;;;9.43;100.00
11114;BME280;5610;52.154;9.198;2023-03-14T03:34:33;98182.38;;;9.41;100.00
11114;BME280;5610;52.154;9.198;2023-03-14T03:37:18;98164.81;;;9.30;100.00
11114;BME280;5610;52.154;9.198;2023-03-14T03:40:05;98144.25;;;9.32;100.00
11114;BME280;5610;52.154;9.198;2023-03-14T03:42:52;98143.69;;;9.28;100.00
11114;BME280;5610;52.154;9.198;2023-03-14T03:45:38;98130.75;;;9.43;100.00
11114;BME280;5610;52.154;9.198;2023-03-14T03:48:24;98134.41;;;9.42;100.00
11114;BME280;5610;52.154;9.198;2023-03-14T03:51:13;98132.78;;;9.59;100.00
11114;BME280;5610;52.154;9.198;2023-03-14T03:53:58;98125.63;;;9.59;100.00
11114;BME280;5610;52.154;9.198;2023-03-14T03:56:50;98121.59;;;9.55;100.00
11114;BME280;5610;52.154;9.198;2023-03-14T03:59:36;98112.41;;;9.50;100.00
11114;BME280;5610;52.154;9.198;2023-03-14T04:02:24;98122.28;;;9.57;100.00
11114;BME280;5610;52.154;9.198;2023-03-14T04:05:09;98118.53;;;9.50;100.00
11114;BME280;5610;52.154;9.198;2023-03-14T04:07:58;98122.66;;;9.62;100.00
11114;BME280;5610;52.154;9.198;2023-03-14T04:10:47;98119.09;;;9.54;100.00
11114;BME280;5610;52.154;9.198;2023-03-14T04:13:39;98103.16;;;9.54;100.00
11114;BME280;5610;52.154;9.198;2023-03-14T04:16:25;98110.44;;;9.52;100.00
11114;BME280;5610;52.154;9.198;2023-03-14T04:19:17;98111.16;;;9.44;100.00
11114;BME280;5610;52.154;9.198;2023-03-14T04:22:03;98112.41;;;9.50;100.00
11114;BME280;5610;52.154;9.198;2023-03-14T04:24:55;98108.31;;;9.55;100.00
11114;BME280;5610;52.154;9.198;2023-03-14T04:27:40;98100.53;;;9.44;100.00
11114;BME280;5610;52.154;9.198;2023-03-14T04:30:34;98112.19;;;9.61;100.00
11114;BME280;5610;52.154;9.198;2023-03-14T04:33:26;98108.78;;;9.69;100.00
11114;BME280;5610;52.154;9.198;2023-03-14T04:36:13;98116.09;;;9.67;100.00
11114;BME280;5610;52.154;9.198;2023-03-14T04:39:01;98095.03;;;9.73;100.00
11114;BME280;5610;52.154;9.198;2023-03-14T04:41:50;98092.50;;;9.72;100.00
11114;BME280;5610;52.154;9.198;2023-03-14T04:44:36;98086.00;;;9.84;100.00
11114;BME280;5610;52.154;9.198;2023-03-14T04:47:20;98096.63;;;9.84;100.00
11114;BME280;5610;52.154;9.198;2023-03-14T04:50:08;98074.66;;;9.64;100.00
11114;BME280;5610;52.154;9.198;2023-03-14T04:52:54;98075.81;;;9.79;100.00
11114;BME280;5610;52.154;9.198;2023-03-14T04:55:39;98082.44;;;9.75;100.00
11114;BME280;5610;52.154;9.198;2023-03-14T04:58:27;98068.88;;;9.86;100.00
11114;BME280;5610;52.154;9.198;2023-03-14T05:01:14;98070.03;;;9.84;100.00
11114;BME280;5610;52.154;9.198;2023-03-14T05:04:08;98059.41;;;9.84;100.00
11114;BME280;5610;52.154;9.198;2023-03-14T05:07:14;98057.94;;;9.72;100.00
11114;BME280;5610;52.154;9.198;2023-03-14T05:10:25;98057.03;;;9.63;100.00
11114;BME280;5610;52.154;9.198;2023-03-14T05:13:36;98043.97;;;9.70;100.00
11114;BME280;5610;52.154;9.198;2023-03-14T05:16:37;98056.34;;;9.79;100.00
11114;BME280;5610;52.154;9.198;2023-03-14T05:19:43;98060.91;;;9.86;100.00
11114;BME280;5610;52.154;9.198;2023-03-14T05:22:47;98059.25;;;9.85;100.00
11114;BME280;5610;52.154;9.198;2023-03-14T05:25:46;98050.59;;;9.83;100.00
11114;BME280;5610;52.154;9.198;2023-03-14T05:28:48;98052.03;;;9.96;100.00
11114;BME280;5610;52.154;9.198;2023-03-14T05:31:57;98048.75;;;9.84;100.00
11114;BME280;5610;52.154;9.198;2023-03-14T05:35:03;98058.69;;;10.00;100.00
11114;BME280;5610;52.154;9.198;2023-03-14T05:38:16;98053.84;;;9.95;100.00
11114;BME280;5610;52.154;9.198;2023-03-14T05:41:13;98063.56;;;10.04;100.00
11114;BME280;5610;52.154;9.198;2023-03-14T05:44:15;98043.34;;;10.11;100.00
11114;BME280;5610;52.154;9.198;2023-03-14T05:47:18;98053.97;;;10.11;100.00
11114;BME280;5610;52.154;9.198;2023-03-14T05:50:36;98044.31;;;10.28;100.00
11114;BME280;5610;52.154;9.198;2023-03-14T05:53:33;98039.19;;;10.35;100.00
11114;BME280;5610;52.154;9.198;2023-03-14T05:56:33;98043.47;;;10.28;100.00
11114;BME280;5610;52.154;9.198;2023-03-14T05:59:32;98044.69;;;10.33;100.00
11114;BME280;5610;52.154;9.198;2023-03-14T06:02:37;98033.09;;;10.42;100.00
11114;BME280;5610;52.154;9.198;2023-03-14T06:05:31;98038.06;;;10.37;100.00
11114;BME280;5610;52.154;9.198;2023-03-14T06:08:18;98029.28;;;10.45;100.00
11114;BME280;5610;52.154;9.198;2023-03-14T06:11:04;98017.66;;;10.46;100.00
11114;BME280;5610;52.154;9.198;2023-03-14T06:13:50;98036.31;;;10.54;100.00
11114;BME280;5610;52.154;9.198;2023-03-14T06:16:37;98038.03;;;10.63;100.00
11114;BME280;5610;52.154;9.198;2023-03-14T06:19:23;98037.19;;;10.63;100.00
11114;BME280;5610;52.154;9.198;2023-03-14T06:22:08;98043.56;;;10.70;100.00
11114;BME280;5610;52.154;9.198;2023-03-14T06:24:55;98030.88;;;10.64;100.00
11114;BME280;5610;52.154;9.198;2023-03-14T06:27:42;98030.88;;;10.64;100.00
11114;BME280;5610;52.154;9.198;2023-03-14T06:30:27;98022.47;;;10.77;100.00
11114;BME280;5610;52.154;9.198;2023-03-14T06:33:14;98039.28;;;10.77;100.00
11114;BME280;5610;52.154;9.198;2023-03-14T06:35:59;98041.81;;;10.79;100.00
11114;BME280;5610;52.154;9.198;2023-03-14T06:38:44;98048.22;;;10.68;100.00
11114;BME280;5610;52.154;9.198;2023-03-14T06:41:29;98040.91;;;10.70;100.00
11114;BME280;5610;52.154;9.198;2023-03-14T06:44:16;98047.88;;;10.71;100.00
11114;BME280;5610;52.154;9.198;2023-03-14T06:47:01;98052.69;;;10.59;100.00
11114;BME280;5610;52.154;9.198;2023-03-14T06:49:48;98048.38;;;10.66;100.00
11114;BME280;5610;52.154;9.198;2023-03-14T06:52:34;98043.72;;;10.68;100.00
11114;BME280;5610;52.154;9.198;2023-03-14T06:55:20;98061.91;;;10.73;100.00
11114;BME280;5610;52.154;9.198;2023-03-14T06:58:05;98055.75;;;10.72;100.00
11114;BME280;5610;52.154;9.198;2023-03-14T07:00:56;98074.03;;;10.67;100.00
11114;BME280;5610;52.154;9.198;2023-03-14T07:03:47;98059.56;;;10.44;100.00
11114;BME280;5610;52.154;9.198;2023-03-14T07:06:34;98050.53;;;10.37;100.00
11114;BME280;5610;52.154;9.198;2023-03-14T07:09:19;98060.44;;;10.27;100.00
11114;BME280;5610;52.154;9.198;2023-03-14T07:12:14;98076.72;;;10.24;100.00
11114;BME280;5610;52.154;9.198;2023-03-14T07:14:59;98079.31;;;10.15;100.00
11114;BME280;5610;52.154;9.198;2023-03-14T07:17:44;98081.72;;;10.27;100.00
11114;BME280;5610;52.154;9.198;2023-03-14T07:20:31;98082.72;;;10.08;100.00
11114;BME280;5610;52.154;9.198;2023-03-14T07:23:19;98084.09;;;10.30;100.00
11114;BME280;5610;52.154;9.198;2023-03-14T07:26:07;98077.16;;;10.37;100.00
11114;BME280;5610;52.154;9.198;2023-03-14T07:28:55;98085.88;;;10.47;100.00
11114;BME280;5610;52.154;9.198;2023-03-14T07:31:40;98078.31;;;10.60;100.00
11114;BME280;5610;52.154;9.198;2023-03-14T07:34:26;98077.94;;;10.55;100.00
11114;BME280;5610;52.154;9.198;2023-03-14T07:37:13;98073.69;;;10.70;100.00
11114;BME280;5610;52.154;9.198;2023-03-14T07:39:59;98071.97;;;10.61;100.00
11114;BME280;5610;52.154;9.198;2023-03-14T07:42:48;98072.25;;;10.50;100.00
11114;BME280;5610;52.154;9.198;2023-03-14T07:45:41;98073.69;;;10.70;100.00
11114;BME280;5610;52.154;9.198;2023-03-14T07:48:30;98079.53;;;11.00;100.00
11114;BME280;5610;52.154;9.198;2023-03-14T07:51:15;98074.06;;;11.10;100.00
11114;BME280;5610;52.154;9.198;2023-03-14T07:54:00;98073.28;;;11.25;100.00
11114;BME280;5610;52.154;9.198;2023-03-14T07:56:46;98067.78;;;11.27;100.00
11114;BME280;5610;52.154;9.198;2023-03-14T07:59:32;98075.00;;;11.35;100.00
11114;BME280;5610;52.154;9.198;2023-03-14T08:02:17;98062.88;;;11.57;100.00
11114;BME280;5610;52.154;9.198;2023-03-14T08:05:07;98065.94;;;12.19;100.00
11114;BME280;5610;52.154;9.198;2023-03-14T08:07:52;98055.75;;;12.38;100.00
11114;BME280;5610;52.154;9.198;2023-03-14T08:10:38;98052.22;;;12.62;100.00
11114;BME280;5610;52.154;9.198;2023-03-14T08:13:24;98060.09;;;12.56;100.00
11114;BME280;5610;52.154;9.198;2023-03-14T08:16:10;98059.69;;;12.75;100.00
11114;BME280;5610;52.154;9.198;2023-03-14T08:18:55;98063.69;;;12.79;100.00
11114;BME280;5610;52.154;9.198;2023-03-14T08:21:41;98055.97;;;12.92;100.00
11114;BME280;5610;52.154;9.198;2023-03-14T08:24:26;98054.59;;;13.05;100.00
11114;BME280;5610;52.154;9.198;2023-03-14T08:27:12;98058.09;;;13.44;100.00
11114;BME280;5610;52.154;9.198;2023-03-14T08:29:59;98053.94;;;13.96;100.00
11114;BME280;5610;52.154;9.198;2023-03-14T08:32:44;98053.47;;;13.92;100.00
11114;BME280;5610;52.154;9.198;2023-03-14T08:35:30;98049.66;;;14.10;100.00
11114;BME280;5610;52.154;9.198;2023-03-14T08:38:15;98050.94;;;14.14;100.00
11114;BME280;5610;52.154;9.198;2023-03-14T08:41:02;98056.09;;;14.38;100.00
11114;BME280;5610;52.154;9.198;2023-03-14T08:43:47;98079.16;;;14.47;100.00
11114;BME280;5610;52.154;9.198;2023-03-14T08:46:34;98067.53;;;14.09;100.00
11114;BME280;5610;52.154;9.198;2023-03-14T08:49:19;98057.34;;;13.59;100.00
11114;BME280;5610;52.154;9.198;2023-03-14T08:52:05;98065.13;;;13.77;100.00
11114;BME280;5610;52.154;9.198;2023-03-14T08:54:50;98056.84;;;13.32;100.00
11114;BME280;5610;52.154;9.198;2023-03-14T08:57:36;98075.69;;;13.39;100.00
11114;BME280;5610;52.154;9.198;2023-03-14T09:00:21;98064.31;;;12.98;100.00
11114;BME280;5610;52.154;9.198;2023-03-14T09:03:08;98073.44;;;12.56;100.00
11114;BME280;5610;52.154;9.198;2023-03-14T09:05:53;98076.97;;;12.48;100.00
11114;BME280;5610;52.154;9.198;2023-03-14T09:08:38;98066.28;;;12.32;100.00
11114;BME280;5610;52.154;9.198;2023-03-14T09:11:24;98080.47;;;12.32;100.00
11114;BME280;5610;52.154;9.198;2023-03-14T09:14:09;98077.81;;;12.24;100.00
11114;BME280;5610;52.154;9.198;2023-03-14T09:16:54;98066.69;;;12.84;100.00
11114;BME280;5610;52.154;9.198;2023-03-14T09:19:41;98061.66;;;13.68;100.00
11114;BME280;5610;52.154;9.198;2023-03-14T09:22:26;98064.03;;;13.32;100.00
11114;BME280;5610;52.154;9.198;2023-03-14T09:25:11;98059.56;;;14.01;100.00
11114;BME280;5610;52.154;9.198;2023-03-14T09:27:57;98066.06;;;14.97;100.00
11114;BME280;5610;52.154;9.198;2023-03-14T09:30:42;98070.47;;;14.37;100.00
11114;BME280;5610;52.154;9.198;2023-03-14T09:33:27;98070.00;;;14.56;100.00
11114;BME280;5610;52.154;9.198;2023-03-14T09:36:14;98052.78;;;14.89;100.00
11114;BME280;5610;52.154;9.198;2023-03-14T09:38:59;98068.56;;;14.83;100.00
11114;BME280;5610;52.154;9.198;2023-03-14T09:41:47;98062.81;;;14.57;100.00
11114;BME280;5610;52.154;9.198;2023-03-14T09:44:35;98064.19;;;14.53;100.00
11114;BME280;5610;52.154;9.198;2023-03-14T09:47:23;98069.09;;;14.26;100.00
11114;BME280;5610;52.154;9.198;2023-03-14T09:50:12;98070.28;;;14.47;100.00
11114;BME280;5610;52.154;9.198;2023-03-14T09:53:02;98057.84;;;14.08;100.00
11114;BME280;5610;52.154;9.198;2023-03-14T09:55:50;98069.97;;;13.73;100.00
11114;BME280;5610;52.154;9.198;2023-03-14T09:58:36;98059.97;;;13.67;100.00
11114;BME280;5610;52.154;9.198;2023-03-14T10:01:26;98070.59;;;13.83;100.00
11114;BME280;5610;52.154;9.198;2023-03-14T10:04:14;98074.56;;;13.87;100.00
11114;BME280;5610;52.154;9.198;2023-03-14T10:07:00;98068.25;;;13.80;100.00
11114;BME280;5610;52.154;9.198;2023-03-14T10:09:48;98081.81;;;13.56;100.00
11114;BME280;5610;52.154;9.198;2023-03-14T10:12:35;98076.59;;;13.62;100.00
11114;BME280;5610;52.154;9.198;2023-03-14T10:15:24;98074.72;;;13.32;100.00
11114;BME280;5610;52.154;9.198;2023-03-14T10:18:12;98068.66;;;13.38;100.00
11114;BME280;5610;52.154;9.198;2023-03-14T10:21:03;98073.06;;;13.62;100.00
11114;BME280;5610;52.154;9.198;2023-03-14T10:23:49;98059.88;;;14.06;100.00
11114;BME280;5610;52.154;9.198;2023-03-14T10:26:36;98058.72;;;14.23;100.00
11114;BME280;5610;52.154;9.198;2023-03-14T10:29:22;98072.56;;;14.88;100.00
11114;BME280;5610;52.154;9.198;2023-03-14T10:32:18;98071.53;;;14.89;100.00
11114;BME280;5610;52.154;9.198;2023-03-14T10:35:10;98073.97;;;14.46;100.00
11114;BME280;5610;52.154;9.198;2023-03-14T10:38:03;98078.97;;;14.49;100.00
11114;BME280;5610;52.154;9.198;2023-03-14T10:40:50;98089.88;;;14.47;100.00
11114;BME280;5610;52.154;9.198;2023-03-14T10:43:38;98086.44;;;14.30;100.00
11114;BME280;5610;52.154;9.198;2023-03-14T10:46:28;98077.34;;;14.40;100.00
11114;BME280;5610;52.154;9.198;2023-03-14T10:49:35;98088.69;;;14.65;100.00
11114;BME280;5610;52.154;9.198;2023-03-14T10:52:23;98095.03;;;13.80;100.00
11114;BME280;5610;52.154;9.198;2023-03-14T10:55:13;98087.47;;;14.07;100.00
11114;BME280;5610;52.154;9.198;2023-03-14T10:57:58;98097.53;;;13.82;100.00
11114;BME280;5610;52.154;9.198;2023-03-14T11:00:47;98089.41;;;13.67;100.00
11114;BME280;5610;52.154;9.198;2023-03-14T11:03:36;98088.69;;;13.50;100.00
11114;BME280;5610;52.154;9.198;2023-03-14T11:06:27;98163.75;;;12.77;100.00
11114;BME280;5610;52.154;9.198;2023-03-14T11:09:18;98178.47;;;10.79;100.00
11114;BME280;5610;52.154;9.198;2023-03-14T11:12:18;98210.53;;;10.34;100.00
11114;BME280;5610;52.154;9.198;2023-03-14T11:15:18;98216.63;;;10.26;100.00
11114;BME280;5610;52.154;9.198;2023-03-14T11:18:29;98235.06;;;9.82;100.00
11114;BME280;5610;52.154;9.198;2023-03-14T11:21:22;98261.16;;;9.69;100.00
11114;BME280;5610;52.154;9.198;2023-03-14T11:24:23;98267.84;;;9.46;100.00
11114;BME280;5610;52.154;9.198;2023-03-14T11:27:17;98286.53;;;9.07;100.00
11114;BME280;5610;52.154;9.198;2023-03-14T11:30:12;98298.72;;;8.90;100.00
11114;BME280;5610;52.154;9.198;2023-03-14T11:33:04;98324.16;;;8.64;100.00
11114;BME280;5610;52.154;9.198;2023-03-14T11:35:58;98345.69;;;8.30;100.00
11114;BME280;5610;52.154;9.198;2023-03-14T11:38:47;98364.69;;;8.25;100.00
11114;BME280;5610;52.154;9.198;2023-03-14T11:41:36;98386.41;;;7.79;100.00
11114;BME280;5610;52.154;9.198;2023-03-14T11:44:26;98396.59;;;7.53;100.00
11114;BME280;5610;52.154;9.198;2023-03-14T11:47:15;98434.09;;;7.16;100.00
11114;BME280;5610;52.154;9.198;2023-03-14T11:50:05;98451.00;;;7.04;100.00
11114;BME280;5610;52.154;9.198;2023-03-14T11:52:56;98470.06;;;6.98;100.00
11114;BME280;5610;52.154;9.198;2023-03-14T11:55:46;98480.94;;;6.73;100.00
11114;BME280;5610;52.154;9.198;2023-03-14T11:58:34;98506.06;;;6.78;100.00
11114;BME280;5610;52.154;9.198;2023-03-14T12:01:24;98513.53;;;6.62;100.00
11114;BME280;5610;52.154;9.198;2023-03-14T12:04:18;98542.88;;;6.37;100.00
11114;BME280;5610;52.154;9.198;2023-03-14T12:07:11;98565.44;;;6.18;100.00
11114;BME280;5610;52.154;9.198;2023-03-14T12:09:59;98571.84;;;6.38;100.00
11114;BME280;5610;52.154;9.198;2023-03-14T12:12:44;98567.19;;;6.42;100.00
11114;BME280;5610;52.154;9.198;2023-03-14T12:15:29;98587.84;;;6.48;100.00
11114;BME280;5610;52.154;9.198;2023-03-14T12:18:20;98601.28;;;5.87;100.00
11114;BME280;5610;52.154;9.198;2023-03-14T12:21:07;98602.81;;;5.90;100.00
11114;BME280;5610;52.154;9.198;2023-03-14T12:23:54;98611.59;;;6.14;100.00
11114;BME280;5610;52.154;9.198;2023-03-14T12:26:49;98611.38;;;6.17;100.00
11114;BME280;5610;52.154;9.198;2023-03-14T12:29:57;98602.84;;;6.25;100.00
11114;BME280;5610;52.154;9.198;2023-03-14T12:36:46;98634.41;;;6.50;100.00
11114;BME280;5610;52.154;9.198;2023-03-14T12:39:39;98650.44;;;7.27;100.00
11114;BME280;5610;52.154;9.198;2023-03-14T12:42:45;98682.41;;;7.69;100.00
11114;BME280;5610;52.154;9.198;2023-03-14T12:45:36;98691.69;;;7.95;100.00
11114;BME280;5610;52.154;9.198;2023-03-14T12:48:23;98698.78;;;7.52;100.00
11114;BME280;5610;52.154;9.198;2023-03-14T12:51:13;98698.38;;;7.79;100.00
11114;BME280;5610;52.154;9.198;2023-03-14T12:54:13;98710.59;;;8.02;100.00
11114;BME280;5610;52.154;9.198;2023-03-14T12:57:08;98714.28;;;7.90;100.00
11114;BME280;5610;52.154;9.198;2023-03-14T12:59:57;98729.09;;;7.92;100.00
11114;BME280;5610;52.154;9.198;2023-03-14T13:02:44;98736.97;;;8.15;100.00
11114;BME280;5610;52.154;9.198;2023-03-14T13:05:30;98733.91;;;9.35;100.00
11114;BME280;5610;52.154;9.198;2023-03-14T13:08:32;98739.13;;;9.16;100.00
11114;BME280;5610;52.154;9.198;2023-03-14T13:11:19;98749.47;;;8.67;100.00
11114;BME280;5610;52.154;9.198;2023-03-14T13:14:09;98769.78;;;8.57;100.00
11114;BME280;5610;52.154;9.198;2023-03-14T13:16:59;98774.53;;;8.31;100.00
11114;BME280;5610;52.154;9.198;2023-03-14T13:19:49;98770.44;;;8.70;100.00
11114;BME280;5610;52.154;9.198;2023-03-14T13:22:35;98777.41;;;9.34;100.00
11114;BME280;5610;52.154;9.198;2023-03-14T13:25:22;98783.84;;;9.62;100.00
11114;BME280;5610;52.154;9.198;2023-03-14T13:28:09;98803.50;;;9.19;100.00
11114;BME280;5610;52.154;9.198;2023-03-14T13:30:57;98801.50;;;8.59;100.00
11114;BME280;5610;52.154;9.198;2023-03-14T13:33:44;98813.88;;;8.37;100.00
11114;BME280;5610;52.154;9.198;2023-03-14T13:36:29;98822.09;;;8.23;100.00
11114;BME280;5610;52.154;9.198;2023-03-14T13:39:18;98826.59;;;8.00;100.00
11114;BME280;5610;52.154;9.198;2023-03-14T13:42:13;98829.25;;;7.78;100.00
11114;BME280;5610;52.154;9.198;2023-03-14T13:44:59;98831.91;;;7.78;100.00
11114;BME280;5610;52.154;9.198;2023-03-14T13:47:45;98842.00;;;7.95;100.00
11114;BME280;5610;52.154;9.198;2023-03-14T13:50:35;98843.72;;;8.62;100.00
11114;BME280;5610;52.154;9.198;2023-03-14T13:53:21;98846.59;;;8.70;100.00
11114;BME280;5610;52.154;9.198;2023-03-14T13:56:08;98853.63;;;8.60;100.00
11114;BME280;5610;52.154;9.198;2023-03-14T13:58:54;98884.69;;;8.25;100.00
11114;BME280;5610;52.154;9.198;2023-03-14T14:01:47;98905.06;;;7.91;100.00
11114;BME280;5610;52.154;9.198;2023-03-14T14:04:35;98932.91;;;7.86;100.00
11114;BME280;5610;52.154;9.198;2023-03-14T14:07:24;98939.63;;;7.67;100.00
11114;BME280;5610;52.154;9.198;2023-03-14T14:10:10;98937.66;;;7.58;100.00
11114;BME280;5610;52.154;9.198;2023-03-14T14:12:59;98944.22;;;7.30;100.00
11114;BME280;5610;52.154;9.198;2023-03-14T14:15:48;98960.63;;;6.87;100.00
11114;BME280;5610;52.154;9.198;2023-03-14T14:18:36;98957.81;;;7.02;100.00
11114;BME280;5610;52.154;9.198;2023-03-14T14:21:22;98966.78;;;7.12;100.00
11114;BME280;5610;52.154;9.198;2023-03-14T14:24:12;98983.50;;;7.71;100.00
11114;BME280;5610;52.154;9.198;2023-03-14T14:27:00;98994.09;;;7.71;100.00
11114;BME280;5610;52.154;9.198;2023-03-14T14:29:57;99005.22;;;7.88;100.00
11114;BME280;5610;52.154;9.198;2023-03-14T14:32:42;99016.59;;;7.66;100.00
11114;BME280;5610;52.154;9.198;2023-03-14T14:35:32;99030.66;;;7.90;100.00
11114;BME280;5610;52.154;9.198;2023-03-14T14:38:17;99032.03;;;7.37;100.00
11114;BME280;5610;52.154;9.198;2023-03-14T14:41:05;99043.88;;;7.44;100.00
11114;BME280;5610;52.154;9.198;2023-03-14T14:43:51;99054.13;;;7.01;100.00
11114;BME280;5610;52.154;9.198;2023-03-14T14:46:36;99058.69;;;6.99;100.00
11114;BME280;5610;52.154;9.198;2023-03-14T14:49:28;99068.84;;;7.05;100.00
11114;BME280;5610;52.154;9.198;2023-03-14T14:52:15;99073.75;;;6.85;100.00
11114;BME280;5610;52.154;9.198;2023-03-14T14:55:02;99087.38;;;7.05;100.00
11114;BME280;5610;52.154;9.198;2023-03-14T14:57:51;99095.63;;;7.37;100.00
11114;BME280;5610;52.154;9.198;2023-03-14T15:00:39;99099.91;;;8.56;100.00
11114;BME280;5610;52.154;9.198;2023-03-14T15:03:28;99103.06;;;9.60;83.80
11114;BME280;5610;52.154;9.198;2023-03-14T15:06:15;99120.41;;;9.76;100.00